Time;durP1;ratioP1;P1;durP2;ratioP2;P2;SDS_P1;SDS_P2;PMS_P1;PMS_P2;Temp;Humidity;BMP_temperature;BMP_pressure;BME280_temperature;BME280_humidity;BME280_pressure;Samples;Min_cycle;Max_cycle;Signal;HPM_P1;HPM_P2
2022/04/26 03:37:33;;;;;;;19.77;12.43;;;5.90;99.90;;;;;;5061834;28;20052;-63
2022/04/26 03:39:59;;;;;;;23.60;13.15;;;5.90;99.90;;;;;;5057990;28;20670;-63
2022/04/26 03:42:25;;;;;;;26.25;14.18;;;5.90;99.90;;;;;;5071077;28;20119;-63
2022/04/26 03:44:51;;;;;;;23.70;14.65;;;5.90;99.90;;;;;;5060432;28;20083;-63
2022/04/26 03:47:17;;;;;;;21.52;13.30;;;5.90;99.90;;;;;;5062636;28;20373;-63
2022/04/26 03:49:43;;;;;;;23.10;13.80;;;5.90;99.90;;;;;;5055795;28;20052;-63
2022/04/26 03:52:09;;;;;;;20.67;13.93;;;5.90;99.90;;;;;;5069195;28;20123;-63
2022/04/26 03:54:35;;;;;;;22.95;13.48;;;5.80;99.90;;;;;;5061157;28;20041;-63
2022/04/26 03:57:01;;;;;;;22.42;13.10;;;5.80;99.90;;;;;;5055707;28;20040;-63
2022/04/26 03:59:26;;;;;;;24.10;12.82;;;5.80;99.90;;;;;;5057106;28;20044;-63
2022/04/26 04:01:52;;;;;;;22.02;13.02;;;5.70;99.90;;;;;;5069598;28;20489;-63
2022/04/26 04:04:18;;;;;;;21.02;12.68;;;5.70;99.90;;;;;;5069034;28;20037;-63
2022/04/26 04:06:44;;;;;;;20.77;13.07;;;5.70;99.90;;;;;;5055628;28;20373;-63
2022/04/26 04:09:10;;;;;;;23.05;13.25;;;5.70;99.90;;;;;;5061942;28;20055;-63
2022/04/26 04:11:36;;;;;;;17.95;11.85;;;5.60;99.90;;;;;;5058310;28;20045;-63
2022/04/26 04:14:01;;;;;;;21.00;11.65;;;5.60;99.90;;;;;;5050679;28;20044;-63
2022/04/26 04:16:27;;;;;;;19.08;11.98;;;5.60;99.90;;;;;;5072154;28;20052;-63
2022/04/26 04:21:37;;;;;;;25.48;10.73;;;5.60;99.90;;;;;;5067397;28;20551;-63
2022/04/26 04:24:03;;;;;;;22.98;10.70;;;5.50;99.90;;;;;;5053239;28;20043;-63
2022/04/26 04:26:29;;;;;;;17.92;9.30;;;5.50;99.90;;;;;;5049200;28;20083;-63
2022/04/26 04:28:55;;;;;;;21.33;10.00;;;5.50;99.90;;;;;;5061064;28;20509;-63
2022/04/26 04:31:21;;;;;;;17.38;9.23;;;5.50;99.90;;;;;;5073168;28;20443;-63
2022/04/26 04:33:48;;;;;;;21.08;9.57;;;5.50;99.90;;;;;;5055288;28;20041;-63
2022/04/26 04:36:15;;;;;;;18.00;9.82;;;5.50;99.90;;;;;;5061028;28;20040;-63
2022/04/26 04:38:41;;;;;;;19.45;9.55;;;5.50;99.90;;;;;;5066628;28;20115;-63
2022/04/26 04:41:07;;;;;;;19.85;9.38;;;5.40;99.90;;;;;;5053310;28;20049;-63
2022/04/26 04:43:34;;;;;;;20.80;9.73;;;5.40;99.90;;;;;;5053869;28;20049;-63
2022/04/26 04:46:01;;;;;;;16.70;8.82;;;5.40;99.90;;;;;;5059253;28;20143;-63
2022/04/26 04:48:26;;;;;;;17.02;8.32;;;5.40;99.90;;;;;;5067478;28;20029;-63
2022/04/26 04:50:52;;;;;;;14.98;7.30;;;5.40;99.90;;;;;;5063673;28;20113;-63
2022/04/26 04:53:19;;;;;;;17.58;7.90;;;5.40;99.90;;;;;;5063963;28;20072;-63
2022/04/26 04:55:45;;;;;;;19.73;9.50;;;5.40;99.90;;;;;;5073656;28;20150;-63
2022/04/26 04:58:11;;;;;;;15.05;8.70;;;5.30;99.90;;;;;;5056050;28;20056;-63
2022/04/26 05:00:37;;;;;;;21.75;9.20;;;5.30;99.90;;;;;;5063035;28;20040;-63
2022/04/26 05:03:03;;;;;;;20.20;9.32;;;5.30;99.90;;;;;;5067247;28;20430;-63
2022/04/26 05:05:29;;;;;;;24.08;9.85;;;5.30;99.90;;;;;;5053466;28;20089;-63
2022/04/26 05:07:56;;;;;;;19.35;9.63;;;5.40;99.90;;;;;;5064706;28;20120;-63
2022/04/26 05:10:22;;;;;;;18.45;9.35;;;5.30;99.90;;;;;;5061971;28;20114;-63
2022/04/26 05:12:48;;;;;;;18.77;9.80;;;5.30;99.90;;;;;;5069321;28;20485;-63
2022/04/26 05:15:14;;;;;;;21.48;9.25;;;5.40;99.90;;;;;;5053360;28;20080;-63
2022/04/26 05:17:40;;;;;;;21.30;10.48;;;5.40;99.90;;;;;;5062456;28;20080;-63
2022/04/26 05:20:06;;;;;;;17.08;10.75;;;5.40;99.90;;;;;;5064823;28;20048;-63
2022/04/26 05:24:53;;;;;;;19.13;8.80;;;5.40;99.90;;;;;;5059892;28;20431;-63
2022/04/26 05:25:18;;;;;;;19.60;8.75;;;5.40;99.90;;;;;;5074376;28;20593;-63
2022/04/26 05:27:43;;;;;;;14.70;9.57;;;5.40;99.90;;;;;;5058019;28;20089;-63
2022/04/26 05:30:10;;;;;;;16.73;7.90;;;5.50;99.90;;;;;;5062037;28;20051;-63
2022/04/26 05:32:35;;;;;;;17.13;9.38;;;5.50;99.90;;;;;;5062450;28;20048;-63
2022/04/26 05:35:02;;;;;;;18.42;9.35;;;5.60;99.90;;;;;;5074381;28;20042;-63
2022/04/26 05:37:31;;;;;;;15.50;8.38;;;5.60;99.90;;;;;;5061148;28;20044;-63
2022/04/26 05:39:57;;;;;;;15.63;8.95;;;5.60;99.90;;;;;;5065370;28;20037;-63
2022/04/26 05:42:23;;;;;;;16.63;8.90;;;5.60;99.90;;;;;;5062075;28;20478;-63
2022/04/26 05:44:49;;;;;;;15.20;8.27;;;5.70;99.90;;;;;;5053989;28;20044;-63
2022/04/26 05:47:15;;;;;;;17.50;9.05;;;5.70;99.90;;;;;;5070776;28;20040;-63
2022/04/26 05:49:41;;;;;;;19.10;9.45;;;5.80;99.90;;;;;;5064524;28;20461;-63
2022/04/26 05:52:07;;;;;;;17.58;8.27;;;6.00;99.90;;;;;;5056555;28;20098;-63
2022/04/26 05:54:34;;;;;;;20.70;9.40;;;6.20;99.90;;;;;;5071987;28;20098;-63
2022/04/26 05:57:00;;;;;;;14.23;8.63;;;6.40;99.90;;;;;;5064877;28;20128;-63
2022/04/26 05:59:26;;;;;;;16.38;8.13;;;6.50;99.90;;;;;;5055670;28;20433;-63
2022/04/26 06:01:52;;;;;;;18.33;8.07;;;6.70;99.90;;;;;;5053637;28;20550;-64
2022/04/26 06:04:18;;;;;;;16.48;7.03;;;6.80;99.90;;;;;;5053597;28;20033;-63
2022/04/26 06:06:44;;;;;;;16.45;7.70;;;6.90;99.90;;;;;;5059693;28;20119;-63
2022/04/26 06:09:13;;;;;;;12.70;7.15;;;7.10;99.90;;;;;;5064795;28;20046;-63
2022/04/26 06:11:39;;;;;;;16.08;7.22;;;7.20;99.90;;;;;;5062666;28;20500;-63
2022/04/26 06:14:05;;;;;;;15.52;7.47;;;7.30;99.90;;;;;;5073395;28;20032;-63
2022/04/26 06:16:32;;;;;;;16.00;7.05;;;7.50;99.90;;;;;;5067006;28;20040;-63
2022/04/26 06:18:57;;;;;;;14.88;6.38;;;7.70;99.90;;;;;;5056315;28;20048;-63
2022/04/26 06:21:23;;;;;;;10.60;6.38;;;7.80;99.90;;;;;;5063354;28;20036;-63
2022/04/26 06:23:51;;;;;;;12.60;6.50;;;8.00;99.90;;;;;;5063431;28;20508;-63
2022/04/26 06:26:17;;;;;;;13.40;5.97;;;8.10;99.90;;;;;;5073152;28;20066;-63
2022/04/26 06:28:43;;;;;;;13.40;6.07;;;8.20;99.90;;;;;;5064148;28;20054;-64
2022/04/26 06:31:10;;;;;;;13.43;5.75;;;8.40;99.90;;;;;;5059578;28;20044;-64
2022/04/26 06:33:38;;;;;;;15.13;5.20;;;8.70;99.90;;;;;;5066798;28;20056;-64
2022/04/26 06:36:04;;;;;;;8.50;4.95;;;8.90;99.90;;;;;;5071761;28;20445;-64
2022/04/26 06:38:30;;;;;;;8.77;4.10;;;9.10;99.90;;;;;;5049586;28;20025;-64
2022/04/26 06:40:56;;;;;;;11.07;4.70;;;9.40;99.90;;;;;;5057794;28;20401;-64
2022/04/26 06:43:22;;;;;;;8.48;3.97;;;9.60;99.90;;;;;;5060916;28;20121;-64
2022/04/26 06:45:48;;;;;;;9.60;4.35;;;9.80;99.90;;;;;;5055196;28;20180;-64
2022/04/26 06:48:17;;;;;;;11.43;4.13;;;9.90;99.90;;;;;;5059079;28;20037;-64
2022/04/26 06:50:44;;;;;;;10.32;3.85;;;10.10;99.90;;;;;;5061933;28;20502;-64
2022/04/26 06:53:10;;;;;;;8.27;4.07;;;10.20;99.90;;;;;;5063639;28;20037;-63
2022/04/26 06:55:36;;;;;;;9.00;4.00;;;10.40;99.90;;;;;;5051459;28;20056;-63
2022/04/26 06:58:02;;;;;;;8.60;4.28;;;10.60;99.90;;;;;;5063544;28;20036;-64
2022/04/26 07:00:28;;;;;;;7.70;4.10;;;10.80;99.90;;;;;;5063805;28;20101;-64
2022/04/26 07:02:55;;;;;;;6.60;3.88;;;10.90;99.90;;;;;;5054841;28;20045;-65
2022/04/26 07:05:21;;;;;;;10.68;4.32;;;11.10;99.90;;;;;;5073049;28;20086;-64
2022/04/26 07:07:52;;;;;;;10.07;3.85;;;11.10;99.90;;;;;;5066656;28;20106;-64
2022/04/26 07:10:18;;;;;;;;;;;11.00;99.90;;;;;;5057794;28;20044;-63
2022/04/26 07:12:43;;;;;;;9.55;4.75;;;10.80;99.90;;;;;;5068648;28;19920;-64
2022/04/26 07:15:11;;;;;;;9.80;5.15;;;10.80;99.90;;;;;;5035807;28;20049;-63
2022/04/26 07:17:41;;;;;;;6.93;4.30;;;10.90;99.90;;;;;;5053819;28;20086;-64
2022/04/26 07:20:08;;;;;;;11.35;5.05;;;11.10;99.90;;;;;;5064197;28;20060;-63
2022/04/26 07:22:38;;;;;;;9.30;4.50;;;11.30;99.90;;;;;;5057921;28;20045;-65
2022/04/26 07:25:06;;;;;;;12.13;5.20;;;11.30;99.90;;;;;;5063964;28;20071;-62
2022/04/26 07:27:33;;;;;;;6.68;5.18;;;11.10;99.90;;;;;;5071469;28;20147;-63
2022/04/26 07:29:59;;;;;;;11.50;4.68;;;11.20;99.90;;;;;;5053544;28;20059;-61
2022/04/26 07:35:10;;;;;;;5.28;4.22;;;11.70;99.90;;;;;;5060831;28;20568;-62
2022/04/26 07:37:40;;;;;;;8.65;4.28;;;11.80;99.90;;;;;;5051568;28;20048;-62
2022/04/26 07:40:07;;;;;;;8.15;4.30;;;12.00;99.90;;;;;;5068159;28;20386;-63
2022/04/26 07:42:33;;;;;;;8.55;4.25;;;12.10;99.90;;;;;;5060088;28;20040;-63
2022/04/26 07:44:59;;;;;;;6.53;3.42;;;12.40;99.90;;;;;;5055328;28;20032;-63
2022/04/26 07:47:26;;;;;;;9.85;3.95;;;12.50;99.90;;;;;;5054397;28;20040;-63
2022/04/26 07:49:53;;;;;;;7.47;3.60;;;12.60;99.90;;;;;;5063662;28;20045;-64
2022/04/26 07:52:20;;;;;;;7.95;4.50;;;12.70;99.90;;;;;;5058509;28;20370;-63
2022/04/26 07:54:46;;;;;;;7.97;3.67;;;12.70;99.90;;;;;;5073567;28;20037;-63
2022/04/26 07:57:13;;;;;;;7.93;4.20;;;12.80;99.90;;;;;;5054489;28;20093;-63
2022/04/26 07:59:39;;;;;;;5.78;3.20;;;12.90;99.90;;;;;;5060746;28;20485;-63
2022/04/26 08:02:08;;;;;;;7.75;3.90;;;12.90;99.90;;;;;;5067491;28;20037;-63
2022/04/26 08:04:34;;;;;;;8.75;3.67;;;12.70;99.90;;;;;;5067653;28;20035;-63
2022/04/26 08:07:00;;;;;;;7.55;3.78;;;12.50;99.90;;;;;;5043791;28;20037;-63
2022/04/26 08:09:26;;;;;;;13.52;5.07;;;12.10;99.90;;;;;;5054986;28;20052;-62
2022/04/26 08:11:52;;;;;;;7.25;3.65;;;12.30;99.90;;;;;;5068913;28;20052;-63
2022/04/26 08:14:20;;;;;;;5.35;3.35;;;12.80;99.90;;;;;;5064708;28;20508;-62
2022/04/26 08:16:46;;;;;;;6.85;4.00;;;13.30;99.90;;;;;;5066690;28;20614;-63
2022/04/26 08:19:12;;;;;;;9.52;3.85;;;13.70;99.90;;;;;;5074604;28;20040;-63
2022/04/26 08:21:39;;;;;;;7.15;3.70;;;14.10;99.90;;;;;;5058293;28;20029;-63
2022/04/26 08:29:34;;;;;;;7.43;3.50;;;15.30;99.90;;;;;;5074094;28;20053;-63
2022/04/26 08:31:59;;;;;;;9.90;3.03;;;15.60;99.90;;;;;;5062153;28;20044;-64
2022/04/26 08:34:25;;;;;;;5.70;2.95;;;15.60;99.90;;;;;;5063867;28;20047;-64
2022/04/26 08:36:51;;;;;;;6.03;3.75;;;15.50;99.90;;;;;;5056174;28;20048;-63
2022/04/26 08:39:17;;;;;;;6.22;3.42;;;15.50;99.90;;;;;;5073857;28;20106;-63
2022/04/26 08:41:43;;;;;;;7.78;3.40;;;15.80;99.90;;;;;;5068385;28;20063;-63
2022/04/26 08:44:10;;;;;;;6.68;3.42;;;16.00;99.90;;;;;;5059489;28;20116;-64
2022/04/26 08:52:06;;;;;;;8.02;3.50;;;15.20;99.90;;;;;;5058449;28;20132;-63
2022/04/26 08:54:32;;;;;;;5.43;3.15;;;14.50;99.90;;;;;;5065704;28;20033;-62
2022/04/26 08:56:59;;;;;;;7.50;3.70;;;13.90;99.90;;;;;;5062663;28;20044;-62
2022/04/26 08:59:25;;;;;;;9.00;3.58;;;13.30;99.90;;;;;;5048833;28;20055;-63
2022/04/26 09:02:21;;;;;;;6.28;3.50;;;13.10;99.90;;;;;;5073659;28;20058;-62
2022/04/26 09:04:52;;;;;;;5.75;3.00;;;12.80;99.90;;;;;;5055186;28;20068;-62
2022/04/26 09:07:32;;;;;;;5.60;2.95;;;12.50;99.90;;;;;;5063668;28;20045;-62
2022/04/26 09:10:12;;;;;;;7.10;2.90;;;12.20;99.90;;;;;;5069146;28;20041;-62
2022/04/26 09:12:59;;;;;;;6.80;2.60;;;12.60;99.90;;;;;;5054962;28;20056;-63
2022/04/26 09:15:32;;;;;;;5.55;3.25;;;13.40;99.90;;;;;;5056276;28;20427;-63
2022/04/26 09:18:20;;;;;;;4.43;3.03;;;14.20;99.90;;;;;;5045431;28;20051;-64
2022/04/26 09:20:51;;;;;;;5.57;2.85;;;15.00;99.90;;;;;;5068143;28;20053;-63
2022/04/26 09:23:28;;;;;;;6.43;3.22;;;15.40;99.90;;;;;;5070637;28;20036;-64
2022/04/26 09:26:07;;;;;;;7.15;3.10;;;15.40;99.90;;;;;;5053756;28;20127;-65
2022/04/26 09:28:36;;;;;;;10.03;3.27;;;15.40;99.90;;;;;;5063397;28;20059;-65
2022/04/26 09:31:21;;;;;;;4.75;2.92;;;15.00;99.90;;;;;;5065375;28;20037;-63
2022/04/26 09:33:52;;;;;;;7.20;2.63;;;14.70;99.90;;;;;;5053259;28;20067;-64
2022/04/26 09:36:24;;;;;;;4.35;2.75;;;14.80;99.90;;;;;;5066250;28;20032;-64
2022/04/26 09:38:59;;;;;;;5.57;2.90;;;15.10;99.90;;;;;;5063950;28;20557;-64
2022/04/26 09:41:29;;;;;;;3.40;2.00;;;15.70;99.90;;;;;;5059193;28;20043;-65
2022/04/26 09:44:01;;;;;;;6.32;2.85;;;16.30;99.90;;;;;;5054559;28;20119;-64
2022/04/26 09:46:52;;;;;;;5.18;2.33;;;16.30;99.40;;;;;;5066822;28;20036;-63
2022/04/26 09:49:21;;;;;;;5.53;2.65;;;16.20;99.90;;;;;;5068973;28;20474;-63
2022/04/26 09:51:54;;;;;;;6.20;2.83;;;16.10;99.40;;;;;;5054499;28;20505;-64
2022/04/26 09:54:21;;;;;;;4.10;2.78;;;15.80;99.10;;;;;;5056688;28;20040;-63
2022/04/26 09:56:48;;;;;;;5.93;2.75;;;15.70;99.90;;;;;;5066374;28;20075;-64
2022/04/26 09:59:19;;;;;;;5.78;2.88;;;15.90;99.90;;;;;;5059430;28;20561;-63
2022/04/26 10:01:50;;;;;;;5.75;3.15;;;15.60;98.70;;;;;;5068669;28;20102;-62
2022/04/26 10:04:22;;;;;;;6.55;2.60;;;15.20;99.40;;;;;;5065705;28;20393;-63
2022/04/26 10:07:00;;;;;;;4.50;2.72;;;15.50;99.90;;;;;;5064556;28;20473;-63
2022/04/26 10:09:27;;;;;;;4.80;3.13;;;16.10;99.90;;;;;;5052119;28;20041;-63
2022/04/26 10:11:58;;;;;;;5.15;2.10;;;16.60;99.60;;;;;;5058988;28;20037;-63
2022/04/26 10:14:27;;;;;;;4.82;2.30;;;17.10;99.20;;;;;;5054202;28;20045;-63
2022/04/26 10:16:54;;;;;;;4.38;2.50;;;17.30;98.40;;;;;;5064750;28;20485;-63
2022/04/26 10:19:20;;;;;;;8.35;2.42;;;17.50;97.90;;;;;;5065520;28;20512;-63
2022/04/26 10:21:46;;;;;;;5.80;2.58;;;17.90;97.60;;;;;;5057359;28;20057;-63
2022/04/26 10:24:23;;;;;;;4.50;2.55;;;18.10;93.80;;;;;;5050133;28;20044;-63
2022/04/26 10:26:51;;;;;;;8.23;3.28;;;18.20;92.70;;;;;;5055480;28;20041;-63
2022/04/26 10:29:20;;;;;;;4.13;2.60;;;18.30;92.10;;;;;;5034610;28;20351;-63
2022/04/26 10:32:01;;;;;;;6.28;2.47;;;18.30;88.50;;;;;;5051803;28;20115;-63
2022/04/26 10:34:33;;;;;;;5.63;2.30;;;17.70;82.30;;;;;;5051954;28;20735;-63
2022/04/26 10:37:03;;;;;;;4.90;2.90;;;17.50;83.40;;;;;;5053304;28;20116;-63
2022/04/26 10:39:32;;;;;;;5.18;2.72;;;17.50;85.00;;;;;;5050838;28;20037;-64
2022/04/26 10:41:59;;;;;;;5.68;2.42;;;17.80;86.30;;;;;;5052156;28;20060;-63
2022/04/26 10:44:31;;;;;;;5.03;2.10;;;18.30;88.80;;;;;;5068658;28;20040;-64
2022/04/26 10:47:03;;;;;;;3.83;2.20;;;18.80;89.30;;;;;;5052624;28;20493;-63
2022/04/26 10:49:35;;;;;;;5.13;2.63;;;19.00;84.80;;;;;;5053090;28;20048;-63
2022/04/26 10:52:22;;;;;;;4.72;2.88;;;18.90;83.20;;;;;;5052208;28;20102;-63
2022/04/26 10:54:53;;;;;;;4.15;2.55;;;18.70;77.00;;;;;;5068952;28;20044;-63
2022/04/26 10:57:26;;;;;;;5.35;2.20;;;18.30;79.00;;;;;;5033860;28;20580;-63
2022/04/26 10:59:56;;;;;;;6.32;2.75;;;18.50;80.80;;;;;;5053181;28;20507;-63
2022/04/26 11:02:23;;;;;;;6.22;2.63;;;18.70;82.70;;;;;;5052016;28;20029;-63
2022/04/26 11:05:25;;;;;;;4.68;2.92;;;18.90;80.30;;;;;;5051710;28;20060;-63
2022/04/26 11:07:51;;;;;;;5.72;2.15;;;18.20;73.20;;;;;;5058936;28;20053;-63
2022/04/26 11:10:26;;;;;;;6.82;2.30;;;17.20;73.70;;;;;;5052771;28;20048;-63
2022/04/26 11:12:52;;;;;;;4.30;2.33;;;17.00;77.30;;;;;;5050177;28;20107;-64
2022/04/26 11:15:25;;;;;;;4.63;2.42;;;17.30;80.10;;;;;;5053241;28;20033;-63
2022/04/26 11:17:53;;;;;;;5.40;2.78;;;17.30;77.80;;;;;;5051902;28;20045;-63
2022/04/26 11:20:20;;;;;;;6.43;2.85;;;17.50;82.20;;;;;;5051978;28;20043;-63
2022/04/26 11:22:49;;;;;;;5.95;2.67;;;17.80;81.00;;;;;;5048232;28;20048;-63
2022/04/26 11:28:06;;;;;;;4.65;2.25;;;17.40;79.70;;;;;;5059325;28;20049;-64
2022/04/26 11:30:42;;;;;;;3.58;1.98;;;17.60;79.70;;;;;;5040852;28;20127;-64
2022/04/26 11:33:22;;;;;;;5.95;2.17;;;17.80;79.70;;;;;;5037751;28;20072;-62
2022/04/26 11:35:57;;;;;;;3.30;2.17;;;18.30;77.90;;;;;;5056300;28;20605;-63
2022/04/26 11:38:24;;;;;;;5.07;2.58;;;18.60;75.40;;;;;;5059294;28;20029;-63
2022/04/26 11:41:00;;;;;;;6.50;2.90;;;18.60;72.90;;;;;;5055625;28;20555;-62
2022/04/26 11:43:28;;;;;;;5.63;2.40;;;17.70;70.70;;;;;;5053783;28;20111;-66
2022/04/26 11:45:55;;;;;;;4.57;2.80;;;17.00;74.10;;;;;;5055416;28;20045;-66
2022/04/26 11:48:29;;;;;;;4.40;2.55;;;16.80;78.00;;;;;;5060037;28;20048;-65
2022/04/26 11:50:56;;;;;;;3.85;2.65;;;16.50;75.10;;;;;;5071985;28;20044;-66
2022/04/26 11:53:24;;;;;;;3.65;2.60;;;16.20;76.30;;;;;;5063042;28;20040;-65
2022/04/26 11:55:57;;;;;;;5.25;2.83;;;16.20;78.50;;;;;;5076082;28;20033;-66
2022/04/26 11:58:32;;;;;;;5.55;2.67;;;16.60;81.50;;;;;;5067669;28;20106;-67
2022/04/26 12:01:12;;;;;;;4.68;2.05;;;17.10;79.10;;;;;;5071070;28;20036;-65
2022/04/26 12:03:46;;;;;;;2.88;2.00;;;17.10;72.60;;;;;;5054809;28;20037;-64
2022/04/26 12:06:14;;;;;;;5.15;2.55;;;16.70;73.60;;;;;;5061284;28;20052;-63
2022/04/26 12:08:48;;;;;;;6.90;2.55;;;16.80;78.00;;;;;;5068221;28;20036;-64
2022/04/26 12:11:38;;;;;;;13.63;3.33;;;17.20;77.70;;;;;;5057308;28;20473;-64
2022/04/26 12:14:11;;;;;;;4.30;1.98;;;17.40;74.90;;;;;;5037863;28;20033;-65
2022/04/26 12:16:43;;;;;;;4.13;2.28;;;17.70;76.90;;;;;;5063012;28;20036;-63
2022/04/26 12:19:09;;;;;;;2.85;2.10;;;17.90;73.70;;;;;;5050123;28;20049;-63
2022/04/26 12:21:51;;;;;;;4.97;2.55;;;18.00;71.10;;;;;;5061156;28;20033;-63
2022/04/26 12:24:22;;;;;;;3.72;2.05;;;18.20;75.00;;;;;;5069543;28;20098;-64
2022/04/26 12:26:52;;;;;;;3.50;2.67;;;18.20;71.10;;;;;;5071972;28;20033;-62
2022/04/26 12:29:17;;;;;;;2.72;2.00;;;17.80;71.00;;;;;;5061612;28;20424;-62
2022/04/26 12:31:48;;;;;;;4.55;2.13;;;17.20;70.90;;;;;;5073941;28;20048;-63
2022/04/26 12:34:22;;;;;;;5.25;2.50;;;16.70;71.20;;;;;;5055428;28;20045;-62
2022/04/26 12:36:52;;;;;;;4.85;2.10;;;16.40;71.40;;;;;;5060705;28;20036;-63
2022/04/26 12:39:22;;;;;;;5.82;2.85;;;16.60;72.30;;;;;;5067978;28;20051;-64
2022/04/26 12:41:49;;;;;;;4.30;2.80;;;16.80;73.90;;;;;;5058898;28;20036;-64
2022/04/26 12:44:15;;;;;;;3.95;2.67;;;16.60;72.40;;;;;;5072912;28;20040;-62
2022/04/26 12:52:43;;;;;;;3.92;2.88;;;15.10;76.20;;;;;;5072913;28;20127;-62
2022/04/26 12:55:09;;;;;;;6.63;2.53;;;15.00;80.10;;;;;;5073706;28;20040;-63
2022/04/26 12:57:50;;;;;;;5.00;2.17;;;15.20;80.70;;;;;;5073848;28;20048;-63
2022/04/26 13:00:19;;;;;;;3.80;2.67;;;15.70;78.50;;;;;;5075180;28;20089;-62
2022/04/26 13:02:49;;;;;;;4.50;2.50;;;16.10;78.60;;;;;;5074757;28;20044;-64
2022/04/26 13:05:15;;;;;;;;;;;16.50;76.80;;;;;;5074116;28;20501;-63
2022/04/26 13:07:41;;;;;;;5.32;2.92;;;16.70;75.80;;;;;;5074111;28;19917;-62
2022/04/26 13:10:07;;;;;;;4.53;2.55;;;16.50;73.50;;;;;;5073456;28;20373;-62
2022/04/26 13:12:34;;;;;;;3.92;2.58;;;16.20;75.00;;;;;;5070607;28;20055;-63
2022/04/26 13:15:00;;;;;;;5.07;2.53;;;16.10;75.20;;;;;;5073601;28;20032;-62
2022/04/26 13:17:27;;;;;;;4.93;2.45;;;15.90;73.60;;;;;;5061742;28;20378;-63
2022/04/26 13:19:54;;;;;;;5.47;2.42;;;15.50;75.30;;;;;;5054681;28;20061;-63
2022/04/26 13:22:21;;;;;;;4.22;2.50;;;15.20;75.90;;;;;;5052590;28;20102;-62
2022/04/26 13:24:47;;;;;;;5.97;2.50;;;15.00;76.90;;;;;;5054251;28;20553;-62
2022/04/26 13:27:13;;;;;;;4.78;2.88;;;15.10;77.70;;;;;;5053593;28;20124;-63
2022/04/26 13:29:39;;;;;;;6.28;2.83;;;15.40;79.20;;;;;;5063881;28;20562;-62
2022/04/26 13:32:05;;;;;;;5.10;3.10;;;15.40;77.90;;;;;;5056272;28;20091;-62
2022/04/26 13:34:31;;;;;;;4.25;2.70;;;15.10;78.40;;;;;;5071636;28;20040;-62
2022/04/26 13:36:57;;;;;;;5.65;3.00;;;14.70;79.50;;;;;;5069219;28;20037;-62
2022/04/26 13:39:23;;;;;;;3.33;2.55;;;14.40;81.30;;;;;;5056481;28;20515;-62
2022/04/26 13:41:52;;;;;;;5.78;2.85;;;14.50;83.50;;;;;;5057468;28;20076;-62
2022/04/26 13:44:21;;;;;;;6.82;3.55;;;14.80;81.90;;;;;;5053240;28;20052;-62
2022/04/26 13:46:47;;;;;;;5.20;2.95;;;14.90;81.30;;;;;;5067512;28;20044;-62
2022/04/26 13:49:13;;;;;;;4.60;3.08;;;15.20;82.70;;;;;;5066619;28;20041;-63
2022/04/26 13:51:39;;;;;;;4.38;2.90;;;15.50;83.20;;;;;;5064830;28;20102;-62
2022/04/26 13:54:05;;;;;;;4.20;2.80;;;15.80;78.50;;;;;;5055917;28;20428;-63
2022/04/26 13:56:31;;;;;;;6.57;2.88;;;15.70;79.00;;;;;;5053606;28;20449;-62
2022/04/26 13:58:57;;;;;;;5.47;2.78;;;15.40;77.10;;;;;;5063499;28;20037;-62
2022/04/26 14:01:23;;;;;;;5.07;2.60;;;15.00;79.50;;;;;;5060415;28;20437;-62
2022/04/26 14:03:52;;;;;;;5.32;2.80;;;14.70;81.60;;;;;;5066002;28;20044;-61
2022/04/26 14:06:21;;;;;;;5.60;2.78;;;14.50;82.90;;;;;;5071349;28;20493;-62
2022/04/26 14:08:51;;;;;;;5.17;2.93;;;14.30;83.70;;;;;;5068254;28;20500;-62
2022/04/26 14:11:17;;;;;;;7.15;3.55;;;14.20;83.90;;;;;;5062843;28;20290;-62
2022/04/26 14:21:57;;;;;;;4.50;2.95;;;13.80;87.50;;;;;;5069079;28;20045;-63
2022/04/26 14:24:23;;;;;;;5.35;2.97;;;13.60;89.00;;;;;;5051172;28;20510;-64
2022/04/26 14:26:49;;;;;;;12.85;3.75;;;13.60;89.50;;;;;;5055115;28;20604;-63
2022/04/26 14:29:15;;;;;;;6.20;2.95;;;13.50;90.40;;;;;;5064550;28;20051;-63
2022/04/26 14:31:42;;;;;;;5.60;2.92;;;13.40;91.20;;;;;;5058395;28;20166;-62
2022/04/26 14:34:08;;;;;;;7.05;3.20;;;13.40;92.10;;;;;;5067017;28;20056;-62
2022/04/26 14:36:34;;;;;;;3.45;2.60;;;13.40;92.30;;;;;;5070175;28;20119;-63
2022/04/26 14:39:00;;;;;;;7.63;3.72;;;13.50;92.10;;;;;;5034506;28;20051;-62
2022/04/26 14:41:29;;;;;;;4.93;2.70;;;13.70;91.90;;;;;;5056914;28;20489;-63
2022/04/26 14:43:55;;;;;;;6.78;3.08;;;13.70;91.40;;;;;;5069073;28;20120;-62
2022/04/26 14:46:21;;;;;;;5.47;3.15;;;13.70;91.40;;;;;;5050908;28;20127;-63
2022/04/26 14:48:47;;;;;;;5.18;2.90;;;13.60;91.40;;;;;;5057947;28;20028;-62
2022/04/26 14:51:13;;;;;;;7.00;3.00;;;13.70;91.60;;;;;;5060625;28;20041;-63
2022/04/26 14:53:39;;;;;;;5.63;2.95;;;14.70;91.40;;;;;;5060192;28;20094;-62
2022/04/26 14:56:07;;;;;;;6.93;3.30;;;15.70;88.20;;;;;;5072055;28;20028;-63
2022/04/26 14:58:34;;;;;;;4.75;2.78;;;16.20;84.10;;;;;;5058586;28;20045;-63
2022/04/26 15:01:00;;;;;;;5.15;3.17;;;16.40;82.00;;;;;;5056710;28;20087;-63
2022/04/26 15:03:27;;;;;;;7.28;3.25;;;16.10;79.70;;;;;;5068021;28;20560;-63
2022/04/26 15:05:54;;;;;;;4.55;3.08;;;16.00;81.40;;;;;;5054220;28;20056;-63
2022/04/26 15:11:04;;;;;;;3.63;2.65;;;16.10;79.30;;;;;;5064084;28;20055;-63
2022/04/26 15:17:00;;;;;;;6.22;2.97;;;15.40;77.70;;;;;;5053250;28;20052;-63
2022/04/26 15:19:00;;;;;;;5.15;3.10;;;14.90;79.80;;;;;;5052369;28;20044;-64
2022/04/26 15:21:26;;;;;;;5.45;3.03;;;14.60;81.50;;;;;;5065740;28;20047;-64
2022/04/26 15:23:53;;;;;;;3.97;3.00;;;14.40;80.80;;;;;;5059115;28;20045;-63
2022/04/26 15:26:21;;;;;;;3.72;2.72;;;14.20;82.80;;;;;;5056679;28;20037;-63
2022/04/26 15:28:47;;;;;;;5.10;3.10;;;14.10;84.10;;;;;;5050172;28;20064;-63
2022/04/26 15:31:18;;;;;;;6.85;3.33;;;13.90;84.20;;;;;;5067722;28;20558;-63
2022/04/26 15:33:49;;;;;;;5.95;3.17;;;13.60;85.80;;;;;;5062507;28;20064;-64
2022/04/26 15:36:17;;;;;;;5.60;3.35;;;13.30;87.80;;;;;;5058617;28;20116;-63
2022/04/26 15:38:43;;;;;;;6.45;3.35;;;13.10;88.80;;;;;;5033687;28;20037;-63
2022/04/26 15:41:09;;;;;;;5.25;3.45;;;12.80;90.10;;;;;;5066938;28;20041;-63
2022/04/26 15:43:37;;;;;;;5.60;3.97;;;12.60;90.80;;;;;;5057321;28;20107;-63
2022/04/26 15:46:04;;;;;;;7.18;3.58;;;12.50;92.20;;;;;;5068484;28;20040;-63
2022/04/26 15:48:30;;;;;;;4.60;2.70;;;12.60;93.60;;;;;;5050354;28;20049;-63
2022/04/26 15:50:56;;;;;;;5.28;3.10;;;12.70;93.10;;;;;;5059836;28;20048;-64
2022/04/26 15:53:23;;;;;;;5.85;2.65;;;12.90;92.50;;;;;;5043856;28;20044;-63
2022/04/26 15:55:49;;;;;;;3.90;3.00;;;12.90;91.30;;;;;;5055625;28;20425;-63
2022/04/26 15:58:15;;;;;;;5.63;2.92;;;12.90;91.50;;;;;;5069710;28;20048;-63
2022/04/26 16:00:41;;;;;;;6.43;3.78;;;13.00;91.20;;;;;;5068398;28;20103;-63
2022/04/26 16:03:07;;;;;;;5.15;3.22;;;12.80;91.10;;;;;;5055187;28;20048;-63
2022/04/26 16:05:33;;;;;;;5.68;3.40;;;12.70;91.40;;;;;;5061490;28;20111;-63
2022/04/26 16:07:59;;;;;;;5.25;3.67;;;12.60;92.00;;;;;;5057644;28;20044;-63
2022/04/26 16:21:25;;;;;;;6.43;3.50;;;12.00;93.70;;;;;;5062989;28;20044;-64
2022/04/26 16:23:54;;;;;;;5.72;3.10;;;11.90;95.00;;;;;;5064943;28;20492;-63
2022/04/26 16:26:22;;;;;;;5.83;3.07;;;11.90;94.60;;;;;;5055842;28;20049;-62
2022/04/26 16:28:51;;;;;;;6.60;3.47;;;11.80;94.20;;;;;;5053248;28;20061;-63
2022/04/26 16:31:19;;;;;;;17.92;3.22;;;11.70;94.80;;;;;;5060441;28;20036;-63
2022/04/26 16:33:45;;;;;;;8.40;4.25;;;11.70;95.50;;;;;;5070042;28;20478;-63
2022/04/26 16:36:11;;;;;;;4.55;3.00;;;11.80;95.80;;;;;;5064386;28;20044;-62
2022/04/26 16:38:38;;;;;;;4.35;3.20;;;11.90;95.30;;;;;;5062634;28;20041;-62
2022/04/26 16:41:05;;;;;;;6.82;2.97;;;12.00;95.30;;;;;;5054404;28;20428;-63
2022/04/26 16:43:33;;;;;;;7.05;3.30;;;12.30;94.90;;;;;;5062697;28;20485;-63
2022/04/26 16:46:01;;;;;;;6.10;2.67;;;12.60;94.00;;;;;;5060889;28;20425;-63
2022/04/26 16:48:27;;;;;;;6.30;2.97;;;12.60;93.30;;;;;;5072407;28;20048;-63
2022/04/26 16:50:54;;;;;;;9.38;3.35;;;12.50;92.70;;;;;;5074329;28;20032;-63
2022/04/26 16:53:20;;;;;;;6.97;2.85;;;12.90;92.20;;;;;;5064479;28;20041;-64
2022/04/26 16:55:49;;;;;;;5.57;3.03;;;13.20;91.40;;;;;;5059065;28;20032;-64
2022/04/26 16:58:16;;;;;;;7.78;3.25;;;13.10;90.60;;;;;;5056216;28;20409;-63
2022/04/26 17:00:44;;;;;;;4.53;2.70;;;12.90;90.40;;;;;;5071899;28;20493;-63
2022/04/26 17:03:10;;;;;;;7.20;3.00;;;12.70;90.50;;;;;;5069930;28;20379;-62
2022/04/26 17:05:44;;;;;;;6.00;2.72;;;12.60;91.00;;;;;;5055242;28;20037;-63
2022/04/26 17:08:10;;;;;;;6.32;3.03;;;12.50;91.40;;;;;;5062644;28;20045;-63
2022/04/26 17:10:36;;;;;;;5.88;3.47;;;12.40;91.30;;;;;;5063149;28;20044;-63
2022/04/26 17:13:02;;;;;;;5.60;3.75;;;12.20;91.60;;;;;;5069863;28;20485;-63
2022/04/26 17:15:31;;;;;;;6.47;3.10;;;12.50;91.70;;;;;;5057292;28;20044;-63
2022/04/26 17:17:57;;;;;;;8.07;3.42;;;13.00;91.40;;;;;;5063786;28;20051;-63